Time;durP1;ratioP1;P1;durP2;ratioP2;P2;SDS_P1;SDS_P2;PMS_P1;PMS_P2;Temp;Humidity;BMP_temperature;BMP_pressure;BME280_temperature;BME280_humidity;BME280_pressure;Samples;Min_cycle;Max_cycle;Signal;HPM_P1;HPM_P2
2023/06/02 00:01:01;;;;;;;4.13;1.70;;;;;;;14.82;47.51;101715.47;4890059;28;97329;-50
2023/06/02 00:03:34;;;;;;;3.43;1.40;;;;;;;14.84;47.74;101715.72;4891316;28;97683;-52
2023/06/02 00:06:01;;;;;;;8.13;1.50;;;;;;;14.79;47.50;101718.44;4891750;28;96987;-49
2023/06/02 00:08:32;;;;;;;5.00;1.90;;;;;;;14.79;47.56;101719.22;4889366;28;98604;-51
2023/06/02 00:10:59;;;;;;;6.83;2.03;;;;;;;14.78;47.54;101720.47;4890551;28;98057;-47
2023/06/02 00:13:25;;;;;;;4.40;1.50;;;;;;;14.80;47.91;101717.19;4889569;28;97332;-46
2023/06/02 00:15:51;;;;;;;3.33;1.50;;;;;;;14.80;47.59;101723.50;4891154;28;97179;-49
2023/06/02 00:18:17;;;;;;;5.87;1.97;;;;;;;14.81;47.60;101710.38;4890983;28;97613;-50
2023/06/02 00:20:44;;;;;;;4.87;1.53;;;;;;;14.77;47.57;101709.88;4890796;28;97070;-50
2023/06/02 00:23:09;;;;;;;2.80;1.23;;;;;;;14.77;47.79;101715.41;4890466;28;97307;-46
2023/06/02 00:25:36;;;;;;;5.57;1.60;;;;;;;14.76;47.82;101711.13;4892560;28;96591;-48
2023/06/02 00:28:03;;;;;;;6.30;1.73;;;;;;;14.74;47.86;101706.06;4891633;28;97413;-48
2023/06/02 00:30:28;;;;;;;8.60;2.10;;;;;;;14.72;47.78;101713.38;4890926;28;97013;-45
2023/06/02 00:32:54;;;;;;;5.67;1.53;;;;;;;14.67;48.01;101712.09;4888137;28;97156;-52
2023/06/02 00:35:20;;;;;;;5.70;1.50;;;;;;;14.61;47.93;101718.88;4891526;28;96882;-51
2023/06/02 00:37:46;;;;;;;5.40;1.50;;;;;;;14.59;48.05;101711.03;4893518;28;96746;-50
2023/06/02 00:40:12;;;;;;;3.83;1.40;;;;;;;14.55;47.95;101706.97;4890462;28;97078;-53
2023/06/02 00:42:37;;;;;;;8.80;2.10;;;;;;;14.52;48.08;101710.75;4891939;28;97524;-50
2023/06/02 00:45:03;;;;;;;8.23;1.60;;;;;;;14.47;48.07;101701.16;4890192;28;96934;-50
2023/06/02 00:47:29;;;;;;;5.97;2.10;;;;;;;14.43;48.22;101703.38;4890541;28;97802;-48
2023/06/02 00:49:54;;;;;;;3.53;1.30;;;;;;;14.38;48.04;101697.78;4888863;28;97307;-49
2023/06/02 00:52:19;;;;;;;4.47;1.60;;;;;;;14.35;48.31;101704.34;4893501;28;97093;-49
2023/06/02 00:54:45;;;;;;;4.73;1.47;;;;;;;14.30;48.53;101703.03;4889152;28;97015;-50
2023/06/02 00:57:10;;;;;;;4.90;1.57;;;;;;;14.25;48.44;101695.41;4890255;28;97293;-48
2023/06/02 00:59:39;;;;;;;6.90;1.97;;;;;;;14.23;48.65;101704.22;4891365;28;96763;-50
2023/06/02 01:02:05;;;;;;;3.97;1.47;;;;;;;14.22;48.46;101713.00;4893432;28;97400;-50
2023/06/02 01:04:31;;;;;;;5.03;1.70;;;;;;;14.17;48.72;101710.97;4893304;28;97107;-47
2023/06/02 01:07:02;;;;;;;6.37;1.43;;;;;;;14.15;48.55;101711.44;4890247;28;98598;-47
2023/06/02 01:09:29;;;;;;;2.77;1.30;;;;;;;14.11;48.46;101710.91;4891321;28;97362;-48
2023/06/02 01:11:55;;;;;;;8.57;2.23;;;;;;;14.07;48.79;101713.16;4888910;28;97345;-49
2023/06/02 01:14:22;;;;;;;4.67;1.37;;;;;;;14.07;48.84;101712.38;4891029;28;97171;-50
2023/06/02 01:16:51;;;;;;;5.37;1.33;;;;;;;14.10;48.93;101703.09;4890078;28;99869;-50
2023/06/02 01:19:21;;;;;;;9.93;1.77;;;;;;;14.10;48.96;101705.88;4888456;28;97766;-49
2023/06/02 01:21:57;;;;;;;3.97;1.40;;;;;;;14.14;48.94;101714.72;4889108;28;97798;-49
2023/06/02 01:24:25;;;;;;;6.03;1.37;;;;;;;14.16;49.01;101712.97;4891867;28;96845;-55
2023/06/02 01:26:51;;;;;;;7.90;1.53;;;;;;;14.19;49.01;101708.47;4889312;28;97283;-50
2023/06/02 01:29:16;;;;;;;5.80;1.73;;;;;;;14.23;49.06;101717.28;4892710;28;96901;-50
2023/06/02 01:31:49;;;;;;;5.20;1.90;;;;;;;14.25;49.10;101717.56;4890788;28;97489;-49
2023/06/02 01:34:21;;;;;;;3.53;1.30;;;;;;;14.26;48.96;101710.78;4890896;28;97383;-48
2023/06/02 01:36:48;;;;;;;5.07;1.70;;;;;;;14.25;48.97;101714.78;4892610;28;96938;-52
2023/06/02 01:39:16;;;;;;;7.13;2.30;;;;;;;14.25;49.00;101709.25;4889645;28;97752;-47
2023/06/02 01:41:44;;;;;;;7.23;1.40;;;;;;;14.26;49.13;101708.03;4892596;28;97992;-50
2023/06/02 01:44:10;;;;;;;3.63;1.50;;;;;;;14.25;49.12;101704.50;4890877;28;97008;-47
2023/06/02 01:46:35;;;;;;;6.00;1.47;;;;;;;14.28;49.10;101711.06;4889167;28;97574;-52
2023/06/02 01:49:01;;;;;;;5.60;1.93;;;;;;;14.28;49.02;101711.78;4890729;28;97118;-51
2023/06/02 01:51:26;;;;;;;3.10;1.40;;;;;;;14.29;49.05;101709.81;4891860;28;98068;-50
2023/06/02 01:53:51;;;;;;;4.67;1.73;;;;;;;14.30;49.17;101707.81;4889888;28;98559;-48
2023/06/02 01:56:17;;;;;;;4.37;1.83;;;;;;;14.31;49.23;101710.09;4891078;28;96810;-49
2023/06/02 01:58:42;;;;;;;3.10;1.30;;;;;;;14.32;49.09;101708.84;4894049;28;99752;-49
2023/06/02 02:01:07;;;;;;;7.03;2.20;;;;;;;14.33;49.31;101710.34;4889322;28;96974;-50
2023/06/02 02:03:33;;;;;;;4.40;1.70;;;;;;;14.35;49.31;101713.38;4891471;28;97098;-47
2023/06/02 02:05:59;;;;;;;4.17;1.60;;;;;;;14.39;49.38;101708.41;4888852;28;97059;-47
2023/06/02 02:08:24;;;;;;;10.27;1.80;;;;;;;14.41;49.39;101702.34;4888814;28;97077;-50
2023/06/02 02:10:50;;;;;;;4.90;1.80;;;;;;;14.44;49.54;101707.66;4888273;28;97176;-50
2023/06/02 02:13:15;;;;;;;6.43;2.00;;;;;;;14.45;49.43;101703.66;4889849;28;97048;-50
2023/06/02 02:15:40;;;;;;;3.77;1.73;;;;;;;14.48;49.45;101701.91;4891771;28;98548;-50
2023/06/02 02:18:06;;;;;;;7.57;2.07;;;;;;;14.49;49.50;101706.19;4892443;28;97116;-53
2023/06/02 02:20:32;;;;;;;11.00;1.90;;;;;;;14.49;49.58;101718.03;4892121;28;97125;-51
2023/06/02 02:22:59;;;;;;;4.53;1.43;;;;;;;14.48;49.57;101702.66;4890881;28;97320;-48
2023/06/02 02:25:24;;;;;;;10.93;1.70;;;;;;;14.47;49.53;101709.44;4890224;28;111115;-52
2023/06/02 02:27:49;;;;;;;2.70;1.00;;;;;;;14.50;49.66;101713.25;4890508;28;97723;-45
2023/06/02 02:30:15;;;;;;;2.90;1.20;;;;;;;14.50;49.73;101704.94;4888742;28;97046;-48
2023/06/02 02:32:43;;;;;;;3.53;1.60;;;;;;;14.47;49.84;101703.16;4889853;28;96854;-52
2023/06/02 02:35:09;;;;;;;6.70;1.40;;;;;;;14.47;49.66;101706.69;4889953;28;97245;-48
2023/06/02 02:37:35;;;;;;;3.57;1.70;;;;;;;14.51;49.86;101711.97;4890969;28;96711;-48
2023/06/02 02:40:00;;;;;;;6.27;1.40;;;;;;;14.51;49.93;101707.22;4891161;28;97463;-48
2023/06/02 02:42:26;;;;;;;4.17;1.60;;;;;;;14.54;50.07;101708.22;4892372;28;97478;-49
2023/06/02 02:44:51;;;;;;;7.93;1.83;;;;;;;14.54;50.07;101722.84;4895924;28;100204;-49
2023/06/02 02:47:17;;;;;;;3.60;2.03;;;;;;;14.56;50.03;101720.34;4891572;28;97356;-47
2023/06/02 02:49:42;;;;;;;5.20;1.77;;;;;;;14.57;50.10;101713.53;4893531;28;97166;-49
2023/06/02 02:52:07;;;;;;;5.27;1.90;;;;;;;14.53;50.07;101713.00;4891377;28;97132;-50
2023/06/02 02:54:33;;;;;;;4.50;1.43;;;;;;;14.51;50.26;101712.75;4890838;28;97053;-47
2023/06/02 02:56:58;;;;;;;5.40;1.67;;;;;;;14.53;50.17;101713.00;4889939;28;103823;-53
2023/06/02 02:59:23;;;;;;;3.80;1.50;;;;;;;14.54;50.30;101716.53;4894516;28;97114;-48
2023/06/02 03:01:49;;;;;;;3.87;1.30;;;;;;;14.54;50.37;101711.78;4893098;28;97270;-49
2023/06/02 03:04:24;;;;;;;12.03;2.23;;;;;;;14.58;50.18;101719.84;4891878;28;97473;-52
2023/06/02 03:06:52;;;;;;;3.93;1.80;;;;;;;14.59;50.26;101715.84;4894674;28;96866;-46
2023/06/02 03:09:18;;;;;;;3.27;1.50;;;;;;;14.59;50.42;101719.34;4892948;28;97164;-51
2023/06/02 03:11:43;;;;;;;6.23;2.20;;;;;;;14.62;50.36;101721.13;4891883;28;97367;-50
2023/06/02 03:14:10;;;;;;;4.90;1.50;;;;;;;14.61;50.48;101721.63;4888673;28;97004;-47
2023/06/02 03:16:38;;;;;;;7.53;1.57;;;;;;;14.63;50.37;101722.66;4893609;28;98564;-48
2023/06/02 03:19:04;;;;;;;6.80;1.80;;;;;;;14.63;50.45;101725.44;4892683;28;97088;-47
2023/06/02 03:21:41;;;;;;;9.67;2.20;;;;;;;14.65;50.41;101725.69;4892982;28;97026;-51
2023/06/02 03:24:10;;;;;;;1.90;1.27;;;;;;;14.67;50.73;101723.19;4890900;28;97631;-48
2023/06/02 03:26:37;;;;;;;3.87;1.50;;;;;;;14.71;50.52;101728.47;4893159;28;98454;-50
2023/06/02 03:29:02;;;;;;;4.90;1.60;;;;;;;14.73;50.62;101725.97;4894226;28;97349;-50
2023/06/02 03:31:28;;;;;;;10.13;1.83;;;;;;;14.72;50.74;101721.69;4893837;28;100496;-48
2023/06/02 03:33:54;;;;;;;5.17;1.90;;;;;;;14.72;50.83;101724.47;4893290;28;98506;-48
2023/06/02 03:36:19;;;;;;;4.10;1.27;;;;;;;14.72;50.72;101725.22;4892924;28;97181;-47
2023/06/02 03:38:45;;;;;;;7.00;1.67;;;;;;;14.74;50.83;101725.47;4890866;28;97152;-48
2023/06/02 03:41:10;;;;;;;3.33;1.80;;;;;;;14.73;50.88;101720.44;4892942;28;97335;-51
2023/06/02 03:43:42;;;;;;;6.07;1.93;;;;;;;14.73;51.33;101718.44;4892916;28;98596;-52
2023/06/02 03:46:07;;;;;;;4.17;1.53;;;;;;;14.75;51.03;101721.47;4891753;28;96991;-50
2023/06/02 03:48:33;;;;;;;7.07;2.30;;;;;;;14.77;51.20;101720.94;4890039;28;96881;-50
2023/06/02 03:50:58;;;;;;;7.43;2.53;;;;;;;14.81;51.12;101729.78;4891358;28;96958;-50
2023/06/02 03:53:23;;;;;;;5.70;2.03;;;;;;;14.83;51.07;101727.31;4890856;28;108266;-46
2023/06/02 03:55:49;;;;;;;6.33;2.00;;;;;;;14.82;51.15;101723.78;4892739;28;97277;-53
2023/06/02 03:58:14;;;;;;;5.83;1.60;;;;;;;14.84;51.13;101718.50;4897015;28;97158;-48
2023/06/02 04:00:41;;;;;;;6.20;2.00;;;;;;;14.81;51.24;101730.56;4893743;28;97232;-49
2023/06/02 04:03:09;;;;;;;6.43;2.17;;;;;;;14.82;51.33;101731.31;4892150;28;98556;-53
2023/06/02 04:05:35;;;;;;;6.23;2.03;;;;;;;14.81;51.33;101736.09;4893340;28;98406;-52
2023/06/02 04:08:00;;;;;;;4.50;2.03;;;;;;;14.84;51.39;101737.13;4892653;28;97218;-48
2023/06/02 04:10:28;;;;;;;10.30;2.20;;;;;;;14.86;51.32;101746.47;4894404;28;97194;-49
2023/06/02 04:12:53;;;;;;;2.60;1.70;;;;;;;14.84;51.39;101746.19;4891932;28;98589;-50
2023/06/02 04:15:18;;;;;;;7.03;2.00;;;;;;;14.85;51.58;101753.25;4891616;28;97242;-50
2023/06/02 04:17:44;;;;;;;4.70;1.90;;;;;;;14.85;51.53;101752.50;4895497;28;97172;-48
2023/06/02 04:20:09;;;;;;;6.43;2.27;;;;;;;14.87;51.63;101750.00;4892443;28;100128;-47
2023/06/02 04:22:35;;;;;;;4.90;1.73;;;;;;;14.92;51.63;101749.25;4892849;28;97241;-49
2023/06/02 04:25:01;;;;;;;8.10;1.83;;;;;;;14.95;51.68;101751.03;4893549;28;97265;-50
2023/06/02 04:27:26;;;;;;;5.53;2.00;;;;;;;14.99;51.56;101757.88;4890747;28;96738;-54
2023/06/02 04:29:51;;;;;;;10.37;1.83;;;;;;;15.04;51.60;101759.16;4890698;28;97331;-47
2023/06/02 04:32:17;;;;;;;9.67;2.30;;;;;;;15.08;51.59;101747.81;4891322;28;97482;-47
2023/06/02 04:34:42;;;;;;;5.70;2.10;;;;;;;15.08;51.72;101753.38;4891844;28;96823;-51
2023/06/02 04:37:07;;;;;;;5.00;1.80;;;;;;;15.09;51.69;101757.66;4892552;28;97353;-46
2023/06/02 04:39:35;;;;;;;5.47;2.07;;;;;;;15.13;51.68;101752.63;4893298;28;97736;-48
2023/06/02 04:42:01;;;;;;;4.77;2.07;;;;;;;15.14;51.72;101757.69;4893218;28;97919;-50
2023/06/02 04:44:26;;;;;;;6.87;2.10;;;;;;;15.19;51.55;101764.50;4891315;28;97054;-50
2023/06/02 04:46:52;;;;;;;11.43;2.17;;;;;;;15.20;51.64;101766.78;4893426;28;103221;-50
2023/06/02 04:49:17;;;;;;;11.40;2.20;;;;;;;15.21;51.83;101767.53;4890670;28;97107;-46
2023/06/02 04:51:43;;;;;;;5.60;1.87;;;;;;;15.22;51.82;101769.06;4890119;28;97623;-50
2023/06/02 04:54:09;;;;;;;4.33;1.70;;;;;;;15.23;52.05;101778.88;4893158;28;97303;-47
2023/06/02 04:56:38;;;;;;;4.97;2.03;;;;;;;15.22;51.93;101777.38;4889177;28;97459;-51
2023/06/02 04:59:03;;;;;;;9.87;2.17;;;;;;;15.22;51.89;101777.38;4892179;28;96926;-50
2023/06/02 05:01:29;;;;;;;8.23;2.70;;;;;;;15.25;52.05;101781.91;4893385;28;97858;-50
2023/06/02 05:03:54;;;;;;;10.10;2.87;;;;;;;15.29;51.82;101774.16;4890513;28;97198;-50
2023/06/02 05:06:20;;;;;;;3.63;1.40;;;;;;;15.32;51.93;101775.91;4893420;28;97128;-49
2023/06/02 05:08:46;;;;;;;8.47;2.50;;;;;;;15.35;51.97;101775.69;4894236;28;97470;-50
2023/06/02 05:11:11;;;;;;;5.33;1.83;;;;;;;15.37;51.89;101775.94;4890693;28;97260;-52
2023/06/02 05:13:37;;;;;;;5.83;2.17;;;;;;;15.40;52.03;101785.25;4889065;28;96725;-51
2023/06/02 05:16:03;;;;;;;6.10;2.17;;;;;;;15.39;51.93;101776.19;4889218;28;97194;-49
2023/06/02 05:18:28;;;;;;;7.07;2.57;;;;;;;15.36;51.97;101776.41;4891977;28;97066;-47
2023/06/02 05:20:54;;;;;;;7.50;2.27;;;;;;;15.37;51.98;101780.72;4889402;28;99037;-50
2023/06/02 05:23:19;;;;;;;10.87;2.40;;;;;;;15.37;52.04;101781.50;4891355;28;96994;-48
2023/06/02 05:25:48;;;;;;;6.17;2.47;;;;;;;15.39;52.12;101776.19;4892994;28;97296;-48
2023/06/02 05:28:13;;;;;;;9.50;2.80;;;;;;;15.44;52.06;101781.03;4888183;28;96875;-48
2023/06/02 05:30:39;;;;;;;10.00;2.40;;;;;;;15.43;52.04;101790.63;4889514;28;98647;-47
2023/06/02 05:33:05;;;;;;;7.37;3.00;;;;;;;15.42;51.94;101789.06;4891156;28;100721;-51
2023/06/02 05:35:30;;;;;;;6.17;2.33;;;;;;;15.37;52.00;101786.28;4889990;28;96913;-50
2023/06/02 05:37:56;;;;;;;8.90;2.40;;;;;;;15.39;52.29;101789.31;4892821;28;96981;-50
2023/06/02 05:40:21;;;;;;;10.13;2.50;;;;;;;15.44;52.30;101797.66;4889032;28;97688;-48
2023/06/02 05:42:47;;;;;;;8.00;2.57;;;;;;;15.52;52.25;101795.19;4888615;28;101100;-49
2023/06/02 05:45:12;;;;;;;7.43;2.50;;;;;;;15.61;52.21;101797.75;4890970;28;97177;-49
2023/06/02 05:47:38;;;;;;;6.20;2.17;;;;;;;15.63;52.20;101795.22;4889828;28;96808;-48
2023/06/02 05:50:03;;;;;;;24.73;3.33;;;;;;;15.70;52.25;101784.38;4891871;28;97561;-50
2023/06/02 05:52:29;;;;;;;10.33;2.40;;;;;;;15.77;52.23;101790.72;4889909;28;97527;-46
2023/06/02 05:54:54;;;;;;;6.90;2.53;;;;;;;15.83;52.29;101786.72;4888388;28;97345;-52
2023/06/02 05:57:20;;;;;;;8.77;2.90;;;;;;;15.89;52.17;101790.25;4890463;28;97552;-47
2023/06/02 05:59:46;;;;;;;9.43;2.20;;;;;;;15.95;52.29;101781.91;4889625;28;104581;-48
2023/06/02 06:02:11;;;;;;;9.03;2.60;;;;;;;16.00;52.05;101784.72;4890087;28;97309;-51
2023/06/02 06:04:37;;;;;;;9.50;2.43;;;;;;;16.00;52.01;101784.72;4891441;28;96755;-52
2023/06/02 06:07:02;;;;;;;14.13;3.27;;;;;;;15.97;52.16;101784.94;4891632;28;100812;-51
2023/06/02 06:09:28;;;;;;;6.43;2.40;;;;;;;16.02;52.23;101793.28;4888472;28;97446;-51
2023/06/02 06:11:53;;;;;;;4.17;2.33;;;;;;;16.14;52.26;101786.47;4890823;28;96756;-49
2023/06/02 06:14:19;;;;;;;5.60;2.60;;;;;;;16.28;52.11;101788.28;4894889;28;97435;-49
2023/06/02 06:16:44;;;;;;;8.80;2.50;;;;;;;16.40;52.03;101795.34;4898277;28;97103;-50
2023/06/02 06:19:11;;;;;;;9.70;2.57;;;;;;;16.55;51.85;101794.38;4893470;28;97229;-48
2023/06/02 06:21:36;;;;;;;6.43;2.80;;;;;;;16.64;51.81;101811.53;4898206;28;96976;-49
2023/06/02 06:24:03;;;;;;;6.30;2.23;;;;;;;16.70;51.67;101794.84;4895493;28;97243;-52
2023/06/02 06:26:28;;;;;;;8.90;2.70;;;;;;;16.70;51.60;101798.41;4894665;28;96976;-50
2023/06/02 06:28:54;;;;;;;6.40;2.40;;;;;;;16.73;51.45;101802.19;4894400;28;106455;-48
2023/06/02 06:31:19;;;;;;;6.07;2.50;;;;;;;16.76;51.51;101804.69;4898671;28;97116;-48
2023/06/02 06:33:44;;;;;;;8.90;2.27;;;;;;;16.79;51.52;101794.59;4896124;28;97254;-48
2023/06/02 06:36:11;;;;;;;6.33;1.97;;;;;;;16.80;51.44;101805.19;4898403;28;97003;-50
2023/06/02 06:38:36;;;;;;;5.80;2.23;;;;;;;16.85;51.54;101804.44;4897033;28;97081;-49
2023/06/02 06:41:01;;;;;;;5.80;2.03;;;;;;;16.92;51.27;101822.63;4894722;28;97017;-50
2023/06/02 06:43:27;;;;;;;7.10;2.00;;;;;;;16.93;51.28;101808.22;4897481;28;97090;-48
2023/06/02 06:45:52;;;;;;;11.47;2.60;;;;;;;16.99;51.41;101811.72;4897398;28;96933;-51
2023/06/02 06:48:17;;;;;;;7.00;2.13;;;;;;;17.05;51.17;101814.50;4890882;28;109114;-50
2023/06/02 06:50:42;;;;;;;6.43;1.70;;;;;;;17.05;51.06;101814.50;4895400;28;96956;-47
2023/06/02 06:53:08;;;;;;;10.07;2.30;;;;;;;17.03;51.24;101817.81;4893464;28;97133;-50
2023/06/02 06:55:34;;;;;;;7.17;2.37;;;;;;;17.04;51.18;101810.97;4893603;28;97052;-53
2023/06/02 06:58:00;;;;;;;10.80;2.20;;;;;;;17.09;51.21;101807.41;4897524;28;97983;-49
2023/06/02 07:00:26;;;;;;;3.83;2.40;;;;;;;17.16;51.18;101809.69;4895760;28;97227;-50
2023/06/02 07:02:52;;;;;;;9.93;2.80;;;;;;;17.30;51.30;101804.34;4895471;28;97473;-47
2023/06/02 07:05:19;;;;;;;11.13;2.50;;;;;;;17.41;51.04;101816.16;4895723;28;97028;-48
2023/06/02 07:07:46;;;;;;;5.23;2.10;;;;;;;17.42;50.88;101814.91;4899203;28;98603;-50
2023/06/02 07:10:14;;;;;;;4.97;2.17;;;;;;;17.44;50.85;101815.13;4895815;28;97168;-48
2023/06/02 07:12:39;;;;;;;7.30;2.47;;;;;;;17.49;50.81;101825.50;4896571;28;97316;-47
2023/06/02 07:15:05;;;;;;;7.50;2.33;;;;;;;17.51;50.68;101809.06;4896727;28;96648;-50
2023/06/02 07:17:31;;;;;;;9.77;2.07;;;;;;;17.53;50.83;101816.91;4895978;28;97156;-56
2023/06/02 07:19:56;;;;;;;4.40;1.73;;;;;;;17.57;50.87;101811.81;4896205;28;97342;-47
2023/06/02 07:22:22;;;;;;;6.67;2.40;;;;;;;17.64;50.73;101809.28;4896025;28;97098;-50
2023/06/02 07:24:47;;;;;;;8.87;2.27;;;;;;;17.82;50.68;101808.66;4894660;28;97492;-49
2023/06/02 07:27:13;;;;;;;7.33;2.30;;;;;;;17.83;50.39;101812.97;4892180;28;97594;-47
2023/06/02 07:29:39;;;;;;;3.97;2.37;;;;;;;17.91;50.27;101810.38;4891103;28;96997;-47
2023/06/02 07:32:05;;;;;;;8.50;2.60;;;;;;;17.94;50.29;101810.13;4891281;28;97583;-50
2023/06/02 07:34:30;;;;;;;6.13;2.00;;;;;;;17.98;50.26;101818.94;4893149;28;97317;-47
2023/06/02 07:36:56;;;;;;;5.83;2.33;;;;;;;18.00;50.16;101817.69;4892679;28;97586;-51
2023/06/02 07:39:21;;;;;;;7.90;2.20;;;;;;;17.92;49.95;101818.22;4891969;28;97036;-50
2023/06/02 07:41:46;;;;;;;6.47;2.10;;;;;;;17.87;50.42;101821.78;4892155;28;97217;-51
2023/06/02 07:44:12;;;;;;;7.53;2.77;;;;;;;17.96;50.33;101813.13;4894850;28;97773;-56
2023/06/02 07:46:37;;;;;;;8.33;2.40;;;;;;;18.06;50.01;101829.53;4893153;28;98519;-47
2023/06/02 07:49:02;;;;;;;11.53;2.60;;;;;;;18.12;49.85;101825.44;4889061;28;97577;-56
2023/06/02 07:51:28;;;;;;;5.23;2.13;;;;;;;17.98;49.72;101821.72;4890665;28;98941;-49
2023/06/02 07:53:53;;;;;;;5.23;1.70;;;;;;;17.91;49.87;101815.94;4892293;28;96935;-49
2023/06/02 07:56:19;;;;;;;4.57;1.97;;;;;;;18.02;49.97;101826.28;4895650;28;98447;-46
2023/06/02 07:58:47;;;;;;;7.00;2.37;;;;;;;18.16;49.89;101820.34;4893784;28;97309;-49
2023/06/02 08:01:13;;;;;;;6.50;2.10;;;;;;;18.32;50.14;101827.09;4895302;28;97354;-50
2023/06/02 08:03:39;;;;;;;7.10;1.50;;;;;;;18.42;49.69;101833.84;4891422;28;97467;-47
2023/06/02 08:06:05;;;;;;;4.10;2.00;;;;;;;18.47;49.67;101835.84;4891905;28;97558;-52
2023/06/02 08:08:30;;;;;;;14.63;2.90;;;;;;;18.50;49.58;101826.47;4893490;28;97918;-47
2023/06/02 08:10:57;;;;;;;9.57;2.70;;;;;;;18.57;49.43;101828.66;4894471;28;97064;-48
2023/06/02 08:13:22;;;;;;;5.90;2.10;;;;;;;18.62;49.39;101828.63;4891826;28;97396;-46
2023/06/02 08:15:48;;;;;;;2.40;1.70;;;;;;;18.71;49.29;101827.53;4893357;28;97129;-47
2023/06/02 08:18:14;;;;;;;5.20;1.73;;;;;;;18.78;49.42;101831.78;4893479;28;97245;-51
2023/06/02 08:20:49;;;;;;;5.77;2.13;;;;;;;18.86;49.05;101835.50;4894011;28;97465;-49
2023/06/02 08:23:14;;;;;;;6.57;1.87;;;;;;;18.85;48.80;101829.16;4893360;28;97279;-46
2023/06/02 08:25:40;;;;;;;7.47;2.13;;;;;;;18.73;49.24;101827.78;4892469;28;97238;-49
2023/06/02 08:28:06;;;;;;;3.27;1.57;;;;;;;18.68;49.33;101825.78;4894028;28;99187;-53
2023/06/02 08:30:35;;;;;;;5.17;1.77;;;;;;;18.73;49.32;101830.56;4893953;28;97906;-47
2023/06/02 08:33:09;;;;;;;3.77;1.90;;;;;;;18.85;49.32;101840.31;4900266;28;100457;-47
2023/06/02 08:35:38;;;;;;;2.17;1.20;;;;;;;18.96;49.31;101839.50;4894701;28;97937;-47
2023/06/02 08:38:06;;;;;;;6.70;1.90;;;;;;;19.10;49.19;101833.50;4895801;28;97053;-45
2023/06/02 08:40:39;;;;;;;8.60;2.00;;;;;;;19.16;48.63;101842.56;4892399;28;97026;-49
2023/06/02 08:43:06;;;;;;;5.03;1.80;;;;;;;19.15;48.63;101840.31;4893607;28;97344;-51
2023/06/02 08:45:32;;;;;;;6.40;1.97;;;;;;;19.18;48.53;101840.00;4893720;28;98229;-48
2023/06/02 08:47:57;;;;;;;4.60;1.73;;;;;;;19.23;48.61;101838.44;4892001;28;97135;-48
2023/06/02 08:50:27;;;;;;;5.90;2.03;;;;;;;19.35;48.56;101832.22;4891082;28;97053;-50
2023/06/02 08:52:55;;;;;;;5.23;1.80;;;;;;;19.46;48.42;101838.97;4889532;28;97282;-54
2023/06/02 08:55:22;;;;;;;2.47;1.40;;;;;;;19.49;48.42;101840.69;4892508;28;101259;-48
2023/06/02 08:57:48;;;;;;;2.73;1.40;;;;;;;19.51;48.03;101844.47;4891617;28;97241;-48
2023/06/02 09:00:15;;;;;;;4.13;1.83;;;;;;;19.54;48.20;101837.09;4892310;28;96847;-51
2023/06/02 09:02:40;;;;;;;2.07;1.70;;;;;;;19.70;48.11;101828.47;4894652;28;97363;-48
2023/06/02 09:05:07;;;;;;;8.10;1.80;;;;;;;19.81;47.82;101833.91;4889536;28;97272;-49
2023/06/02 09:07:32;;;;;;;5.57;2.20;;;;;;;20.02;47.94;101837.72;4892123;28;97310;-52
2023/06/02 09:09:58;;;;;;;6.13;2.07;;;;;;;20.15;47.77;101837.00;4891960;28;97318;-47
2023/06/02 09:12:23;;;;;;;4.23;1.70;;;;;;;20.21;47.61;101836.94;4893039;28;97585;-47
2023/06/02 09:15:08;;;;;;;9.27;1.83;;;;;;;20.48;46.93;101835.75;4890910;28;97586;-54
2023/06/02 09:17:33;;;;;;;5.27;1.50;;;;;;;20.67;47.07;101831.63;4894523;28;97847;-49
2023/06/02 09:20:09;;;;;;;8.50;1.80;;;;;;;20.84;46.81;101837.69;4889353;28;96985;-47
2023/06/02 09:22:34;;;;;;;3.53;1.60;;;;;;;20.76;46.82;101850.78;4891148;28;97206;-50
2023/06/02 09:25:00;;;;;;;5.87;1.57;;;;;;;20.67;46.71;101850.44;4890268;28;98684;-51
2023/06/02 09:27:26;;;;;;;10.10;2.10;;;;;;;20.57;46.79;101850.09;4890594;28;97350;-49
2023/06/02 09:29:58;;;;;;;5.97;1.90;;;;;;;20.48;46.65;101841.34;4889982;28;97148;-49
2023/06/02 09:32:24;;;;;;;4.33;1.70;;;;;;;20.45;46.94;101842.41;4892110;28;96808;-50
2023/06/02 09:34:50;;;;;;;2.17;1.80;;;;;;;20.50;46.87;101842.34;4890528;28;97172;-50
2023/06/02 09:37:16;;;;;;;4.87;1.63;;;;;;;20.50;46.99;101849.97;4902894;28;97584;-48
2023/06/02 09:39:57;;;;;;;4.23;1.40;;;;;;;20.44;46.80;101846.50;4892003;28;96746;-49
2023/06/02 09:42:23;;;;;;;4.97;1.90;;;;;;;20.35;47.07;101853.25;4891122;28;96884;-50
2023/06/02 09:45:08;;;;;;;6.40;1.90;;;;;;;20.27;46.87;101846.75;4889468;28;96922;-49
2023/06/02 09:47:41;;;;;;;2.47;1.10;;;;;;;20.29;46.95;101855.34;4891800;28;97192;-46
2023/06/02 09:50:08;;;;;;;2.67;1.70;;;;;;;20.32;47.01;101861.94;4889367;28;97228;-48
2023/06/02 09:52:33;;;;;;;4.60;1.80;;;;;;;20.31;47.09;101861.19;4892887;28;97234;-52
2023/06/02 09:54:59;;;;;;;3.27;1.70;;;;;;;20.36;46.92;101863.13;4889637;28;97145;-49
2023/06/02 09:57:25;;;;;;;3.50;1.87;;;;;;;20.49;46.95;101852.00;4887938;28;98296;-49
2023/06/02 09:59:50;;;;;;;5.07;2.17;;;;;;;20.89;46.98;101864.03;4889657;28;97312;-48
2023/06/02 10:02:16;;;;;;;5.80;1.90;;;;;;;21.01;46.34;101861.81;4890790;28;97203;-48
2023/06/02 10:04:41;;;;;;;5.40;1.87;;;;;;;20.97;46.41;101859.31;4892755;28;98564;-47
2023/06/02 10:07:25;;;;;;;10.30;1.67;;;;;;;20.86;46.49;101863.06;4890029;28;97056;-53
2023/06/02 10:10:13;;;;;;;5.03;1.97;;;;;;;20.75;46.70;101863.25;4891607;28;97440;-48
2023/06/02 10:12:50;;;;;;;3.10;1.80;;;;;;;20.84;46.78;101862.84;4890921;28;97306;-49
2023/06/02 10:15:31;;;;;;;4.50;1.80;;;;;;;20.98;46.70;101860.84;4891996;28;97377;-49
2023/06/02 10:18:05;;;;;;;3.40;1.80;;;;;;;20.97;46.52;101862.13;4897102;28;97415;-52
2023/06/02 10:20:54;;;;;;;3.63;1.80;;;;;;;20.87;46.49;101852.63;4888891;28;97131;-48
2023/06/02 10:23:27;;;;;;;4.50;1.50;;;;;;;20.66;46.49;101855.28;4889587;28;98455;-49
2023/06/02 10:26:14;;;;;;;2.80;1.90;;;;;;;20.54;47.23;101853.19;4890671;28;97360;-52
2023/06/02 10:28:42;;;;;;;4.50;1.63;;;;;;;20.56;47.31;101853.41;4891519;28;98641;-47
2023/06/02 10:31:11;;;;;;;4.40;1.80;;;;;;;20.58;47.27;101851.59;4890356;28;96868;-47
2023/06/02 10:33:58;;;;;;;1.83;1.30;;;;;;;20.72;47.18;101858.75;4888401;28;97361;-49
2023/06/02 10:36:24;;;;;;;2.50;1.70;;;;;;;20.80;47.12;101856.81;4889719;28;98154;-49
2023/06/02 10:38:50;;;;;;;4.63;1.67;;;;;;;20.81;46.76;101860.38;4889683;28;97009;-50
2023/06/02 10:41:21;;;;;;;2.93;1.67;;;;;;;20.72;46.88;101858.75;4891770;28;97712;-50
2023/06/02 10:44:25;;;;;;;7.23;2.30;;;;;;;20.71;46.40;101860.03;4887467;28;96704;-47
2023/06/02 10:47:18;;;;;;;2.07;1.70;;;;;;;20.74;46.22;101864.56;4891136;28;96653;-50
2023/06/02 10:50:02;;;;;;;2.40;1.80;;;;;;;20.68;46.52;101863.16;4890800;28;96986;-49
2023/06/02 10:52:30;;;;;;;2.07;1.70;;;;;;;20.58;46.99;101867.63;4891252;28;96851;-48
2023/06/02 10:55:07;;;;;;;5.50;2.00;;;;;;;20.60;46.60;101863.00;4890463;28;97096;-50
2023/06/02 10:58:05;;;;;;;3.73;2.30;;;;;;;20.79;46.11;101860.91;4889820;28;97879;-52
2023/06/02 11:00:36;;;;;;;2.97;1.60;;;;;;;21.13;46.53;101847.09;4890557;28;97598;-51
2023/06/02 11:03:11;;;;;;;2.70;1.87;;;;;;;21.41;46.14;101844.50;4890025;28;97131;-49
2023/06/02 11:05:36;;;;;;;5.57;1.90;;;;;;;21.60;46.08;101850.72;4889307;28;97546;-48
2023/06/02 11:08:21;;;;;;;4.00;1.43;;;;;;;21.59;45.44;101851.28;4893032;28;97808;-48
2023/06/02 11:10:50;;;;;;;2.27;1.50;;;;;;;21.49;45.66;101856.56;4893829;28;97402;-49
2023/06/02 11:13:18;;;;;;;4.03;2.10;;;;;;;21.37;45.53;101854.53;4892613;28;97142;-48
2023/06/02 11:15:52;;;;;;;1.83;1.73;;;;;;;21.46;45.39;101856.91;4892449;28;97228;-48
2023/06/02 11:18:23;;;;;;;2.90;1.70;;;;;;;21.85;45.01;101870.88;4889196;28;97639;-50
2023/06/02 11:20:50;;;;;;;3.13;1.57;;;;;;;21.96;44.96;101870.63;4893667;28;97181;-46
2023/06/02 11:23:17;;;;;;;3.80;1.40;;;;;;;21.90;44.73;101867.22;4892289;28;97068;-50
2023/06/02 11:25:43;;;;;;;8.90;1.77;;;;;;;21.88;44.71;101872.59;4892844;28;97244;-47